createdAt,value
2022-11-27T00:00:42.041Z,20.05
2022-11-27T00:03:10.888Z,19.27
2022-11-27T00:05:45.615Z,18.45
2022-11-27T00:08:14.300Z,21.48
2022-11-27T00:10:44.880Z,22.02
2022-11-27T00:13:13.549Z,19.80
2022-11-27T00:15:44.252Z,20.38
2022-11-27T00:18:13.525Z,20.40
2022-11-27T00:20:48.155Z,18.38
2022-11-27T00:23:16.783Z,22.10
2022-11-27T00:25:54.365Z,17.05
2022-11-27T00:28:23.124Z,18.10
2022-11-27T00:30:51.859Z,17.05
2022-11-27T00:33:20.659Z,19.48
2022-11-27T00:35:49.355Z,21.25
2022-11-27T00:38:19.724Z,17.17
2022-11-27T00:40:49.059Z,23.65
2022-11-27T00:43:19.887Z,23.75
2022-11-27T00:45:51.115Z,21.83
2022-11-27T00:48:19.745Z,19.27
2022-11-27T00:50:48.427Z,21.95
2022-11-27T00:53:17.114Z,15.75
2022-11-27T00:55:47.962Z,19.48
2022-11-27T00:58:16.665Z,20.45
2022-11-27T01:00:47.744Z,18.27
2022-11-27T01:03:16.646Z,16.23
2022-11-27T01:05:45.413Z,17.23
2022-11-27T01:08:14.092Z,15.75
2022-11-27T01:10:54.451Z,17.67
2022-11-27T01:13:28.763Z,11.90
2022-11-27T01:16:04.574Z,14.80
2022-11-27T01:18:34.921Z,17.85
2022-11-27T01:21:05.223Z,17.38
2022-11-27T01:23:34.403Z,15.23
2022-11-27T01:26:03.865Z,13.00
2022-11-27T01:28:32.867Z,12.98
2022-11-27T01:31:07.167Z,13.38
2022-11-27T01:33:36.171Z,14.88
2022-11-27T01:36:07.950Z,14.40
2022-11-27T01:38:37.638Z,18.50
2022-11-27T01:41:10.481Z,9.95
2022-11-27T01:43:43.382Z,15.23
2022-11-27T01:46:32.739Z,17.02
2022-11-27T01:49:26.431Z,13.30
2022-11-27T01:52:00.995Z,16.00
2022-11-27T01:54:34.679Z,13.38
2022-11-27T01:57:09.382Z,19.67
2022-11-27T01:59:37.994Z,13.80
2022-11-27T02:02:08.620Z,15.75
2022-11-27T02:04:37.507Z,13.57
2022-11-27T02:07:06.534Z,13.63
2022-11-27T02:09:35.877Z,17.40
2022-11-27T02:12:26.564Z,14.10
2022-11-27T02:15:04.617Z,10.80
2022-11-27T02:17:42.619Z,14.60
2022-11-27T02:20:39.169Z,14.52
2022-11-27T02:23:47.182Z,14.35
2022-11-27T02:26:39.705Z,15.57
2022-11-27T02:29:12.591Z,15.82
2022-11-27T02:31:48.513Z,14.43
2022-11-27T02:34:29.490Z,12.68
2022-11-27T02:37:11.197Z,11.93
2022-11-27T02:39:48.699Z,10.50
2022-11-27T02:42:21.934Z,15.65
2022-11-27T02:45:00.083Z,14.32
2022-11-27T02:47:32.002Z,15.50
2022-11-27T02:52:33.080Z,10.85
2022-11-27T02:55:06.808Z,12.50
2022-11-27T02:57:38.486Z,13.45
2022-11-27T03:00:12.102Z,12.00
2022-11-27T03:02:46.112Z,12.88
2022-11-27T03:05:20.374Z,15.48
2022-11-27T03:07:54.615Z,13.38
2022-11-27T03:10:30.695Z,14.32
2022-11-27T03:13:00.456Z,11.95
2022-11-27T03:15:41.099Z,14.23
2022-11-27T03:18:19.492Z,14.40
2022-11-27T03:20:57.941Z,14.85
2022-11-27T03:23:26.564Z,13.95
2022-11-27T03:25:55.509Z,12.68
2022-11-27T03:28:24.709Z,13.93
2022-11-27T03:30:57.172Z,10.68
2022-11-27T03:33:26.051Z,12.25
2022-11-27T03:35:54.784Z,16.30
2022-11-27T03:38:23.530Z,8.43
2022-11-27T03:40:59.839Z,13.07
2022-11-27T03:43:35.781Z,12.63
2022-11-27T03:46:12.498Z,11.07
2022-11-27T03:48:51.693Z,9.82
2022-11-27T03:51:27.411Z,12.85
2022-11-27T03:54:06.166Z,13.10
2022-11-27T03:56:42.304Z,13.93
2022-11-27T03:59:16.045Z,10.23
2022-11-27T04:01:47.088Z,11.88
2022-11-27T04:04:16.557Z,10.17
2022-11-27T04:06:45.235Z,13.68
2022-11-27T04:09:13.895Z,11.77
2022-11-27T04:11:42.525Z,9.43
2022-11-27T04:14:11.375Z,9.23
2022-11-27T04:16:40.008Z,10.68
2022-11-27T04:19:10.691Z,11.32
2022-11-27T04:21:39.337Z,9.50
2022-11-27T04:24:08.583Z,13.30
2022-11-27T04:26:37.216Z,9.32
2022-11-27T04:29:05.938Z,11.18
2022-11-27T04:31:34.639Z,14.07
2022-11-27T04:34:03.379Z,11.40
2022-11-27T04:36:39.017Z,15.05
2022-11-27T04:39:08.146Z,9.73
2022-11-27T04:41:36.812Z,13.07
2022-11-27T04:44:06.289Z,11.50
2022-11-27T04:46:35.119Z,11.98
2022-11-27T04:49:03.972Z,15.68
2022-11-27T04:51:35.229Z,11.95
2022-11-27T04:54:04.019Z,11.13
2022-11-27T04:56:32.812Z,13.02
2022-11-27T04:59:01.442Z,13.35
2022-11-27T05:01:30.178Z,14.07
2022-11-27T05:03:58.827Z,12.57
2022-11-27T05:06:27.566Z,11.48
2022-11-27T05:09:01.329Z,11.07
2022-11-27T05:11:31.462Z,15.18
2022-11-27T05:14:13.267Z,13.60
2022-11-27T05:16:42.034Z,11.80
2022-11-27T05:19:11.272Z,12.82
2022-11-27T05:21:40.332Z,14.40
2022-11-27T05:24:12.145Z,15.13
2022-11-27T05:26:42.271Z,16.20
2022-11-27T05:29:12.859Z,16.75
2022-11-27T05:31:41.951Z,12.68
2022-11-27T05:34:11.362Z,16.90
2022-11-27T05:36:40.999Z,11.45
2022-11-27T05:39:12.951Z,18.40
2022-11-27T05:44:14.600Z,12.77
2022-11-27T05:46:45.021Z,12.75
2022-11-27T05:49:16.965Z,12.38
2022-11-27T05:54:22.028Z,14.55
2022-11-27T05:56:50.716Z,12.15
2022-11-27T05:59:19.559Z,9.35
2022-11-27T06:01:48.699Z,11.65
2022-11-27T06:04:17.332Z,10.88
2022-11-27T06:06:45.984Z,11.52
2022-11-27T06:09:14.740Z,9.43
2022-11-27T06:11:45.322Z,10.43
2022-11-27T06:14:14.006Z,9.98
2022-11-27T06:16:42.765Z,8.10
2022-11-27T06:19:11.504Z,12.38
2022-11-27T06:21:40.538Z,10.77
2022-11-27T06:24:09.434Z,10.95
2022-11-27T06:26:38.093Z,12.23
2022-11-27T06:29:08.753Z,10.02
2022-11-27T06:31:37.598Z,10.40
2022-11-27T06:34:07.505Z,9.55
2022-11-27T06:36:40.111Z,10.48
2022-11-27T06:39:12.209Z,10.02
2022-11-27T06:41:40.902Z,10.50
2022-11-27T06:44:12.199Z,10.90
2022-11-27T06:46:40.847Z,13.45
2022-11-27T06:49:09.498Z,11.35
2022-11-27T06:51:38.195Z,10.18
2022-11-27T06:54:07.120Z,12.30
2022-11-27T06:56:35.751Z,10.68
2022-11-27T06:59:04.399Z,10.75
2022-11-27T07:01:35.556Z,11.43
2022-11-27T07:04:04.199Z,11.10
2022-11-27T07:06:32.804Z,11.38
2022-11-27T07:09:01.476Z,11.95
2022-11-27T07:11:32.147Z,9.15
2022-11-27T07:14:03.347Z,14.93
2022-11-27T07:16:37.360Z,9.90
2022-11-27T07:19:08.558Z,8.93
2022-11-27T07:21:39.408Z,12.40
2022-11-27T07:24:09.526Z,12.45
2022-11-27T07:26:38.171Z,18.70
2022-11-27T07:29:06.778Z,12.95
2022-11-27T07:31:37.493Z,12.52
2022-11-27T07:34:11.702Z,11.85
2022-11-27T07:36:42.838Z,14.23
2022-11-27T07:39:11.551Z,15.30
2022-11-27T07:41:40.160Z,12.63
2022-11-27T07:44:08.851Z,11.77
2022-11-27T07:46:39.444Z,12.73
2022-11-27T07:49:07.999Z,16.65
2022-11-27T07:51:36.571Z,13.57
2022-11-27T07:54:05.706Z,14.55
2022-11-27T07:56:34.560Z,10.93
2022-11-27T07:59:03.156Z,11.68
2022-11-27T08:01:31.860Z,12.15
2022-11-27T08:04:02.556Z,14.52
2022-11-27T08:06:31.342Z,13.65
2022-11-27T08:08:59.943Z,12.15
2022-11-27T08:11:32.281Z,13.25
2022-11-27T08:14:03.114Z,12.05
2022-11-27T08:16:33.592Z,11.60
2022-11-27T08:19:04.643Z,11.50
2022-11-27T08:21:34.253Z,11.57
2022-11-27T08:24:02.934Z,13.90
2022-11-27T08:26:31.596Z,12.65
2022-11-27T08:29:00.247Z,13.70
2022-11-27T08:31:29.247Z,11.50
2022-11-27T08:33:58.464Z,10.60
2022-11-27T08:36:29.417Z,14.20
2022-11-27T08:38:58.589Z,10.98
2022-11-27T08:41:27.225Z,11.60
2022-11-27T08:43:55.884Z,15.25
2022-11-27T08:46:26.416Z,13.35
2022-11-27T08:48:55.012Z,14.20
2022-11-27T08:51:23.571Z,17.60
2022-11-27T08:53:54.651Z,14.55
2022-11-27T08:56:26.012Z,14.57
2022-11-27T08:58:54.922Z,13.50
2022-11-27T09:01:26.159Z,14.20
2022-11-27T09:03:55.591Z,14.05
2022-11-27T09:06:27.506Z,16.27
2022-11-27T09:11:31.416Z,14.65
2022-11-27T09:14:00.954Z,15.13
2022-11-27T09:16:29.952Z,18.60
2022-11-27T09:18:59.727Z,15.10
2022-11-27T09:21:31.239Z,16.30
2022-11-27T09:24:03.255Z,14.85
2022-11-27T09:26:32.631Z,14.10
2022-11-27T09:29:01.317Z,12.60
2022-11-27T09:31:30.051Z,12.80
2022-11-27T09:34:00.863Z,19.00
2022-11-27T09:36:29.492Z,17.55
2022-11-27T09:39:02.919Z,16.95
2022-11-27T09:41:48.328Z,14.40
2022-11-27T09:44:33.333Z,18.40
2022-11-27T09:47:11.563Z,11.90
2022-11-27T09:49:47.450Z,15.85
2022-11-27T09:52:25.043Z,13.80
2022-11-27T09:55:03.323Z,16.42
2022-11-27T09:57:39.104Z,14.43
2022-11-27T10:00:15.945Z,15.13
2022-11-27T10:02:45.594Z,16.60
2022-11-27T10:05:21.056Z,12.48
2022-11-27T10:08:18.955Z,17.65
2022-11-27T10:11:14.271Z,15.07
2022-11-27T10:14:22.155Z,15.00
2022-11-27T10:16:58.351Z,14.00
2022-11-27T10:19:37.311Z,16.40
2022-11-27T10:22:21.000Z,13.32
2022-11-27T10:25:04.409Z,13.57
2022-11-27T10:27:44.993Z,17.25
2022-11-27T10:30:18.979Z,14.60
2022-11-27T10:32:57.504Z,17.98
2022-11-27T10:35:29.222Z,19.27
2022-11-27T10:38:06.770Z,14.65
2022-11-27T10:40:42.342Z,14.60
2022-11-27T10:43:20.266Z,15.27
2022-11-27T10:45:54.370Z,18.20
2022-11-27T10:48:23.654Z,15.98
2022-11-27T10:50:52.954Z,17.48
2022-11-27T10:53:28.627Z,13.80
2022-11-27T10:56:22.831Z,14.75
2022-11-27T10:59:00.672Z,16.15
2022-11-27T11:01:43.717Z,14.10
2022-11-27T11:04:36.419Z,15.43
2022-11-27T11:07:04.088Z,13.55
2022-11-27T11:09:35.493Z,17.58
2022-11-27T11:12:16.819Z,16.35
2022-11-27T11:14:55.847Z,17.58
2022-11-27T11:17:28.164Z,16.13
2022-11-27T11:19:57.058Z,17.10
2022-11-27T11:22:26.151Z,13.32
2022-11-27T11:24:55.752Z,13.20
2022-11-27T11:27:30.630Z,13.18
2022-11-27T11:30:04.008Z,15.95
2022-11-27T11:32:36.559Z,14.70
2022-11-27T11:35:11.221Z,12.63
2022-11-27T11:37:46.187Z,11.18
2022-11-27T11:40:25.207Z,13.52
2022-11-27T11:42:57.468Z,18.05
2022-11-27T11:45:32.648Z,14.73
2022-11-27T11:48:05.948Z,13.98
2022-11-27T11:50:40.983Z,15.25
2022-11-27T11:53:19.800Z,15.70
2022-11-27T11:56:00.753Z,13.93
2022-11-27T11:58:49.784Z,12.55
2022-11-27T12:01:43.656Z,11.68
2022-11-27T12:04:43.285Z,15.25
2022-11-27T12:07:27.241Z,13.48
2022-11-27T12:10:05.928Z,14.13
2022-11-27T12:12:51.145Z,15.32
2022-11-27T12:15:27.869Z,13.55
2022-11-27T12:18:02.921Z,13.00
2022-11-27T12:20:48.996Z,13.02
2022-11-27T12:23:48.820Z,15.07
2022-11-27T12:26:30.580Z,12.73
2022-11-27T12:29:27.701Z,9.50
2022-11-27T12:32:25.355Z,10.48
2022-11-27T12:35:19.127Z,10.48
2022-11-27T12:38:02.339Z,14.07
2022-11-27T12:40:49.299Z,9.02
2022-11-27T12:43:26.110Z,11.57
2022-11-27T12:46:02.780Z,11.80
2022-11-27T12:48:38.171Z,12.23
2022-11-27T12:51:13.803Z,11.70
2022-11-27T12:53:47.671Z,8.98
2022-11-27T12:56:24.017Z,10.30
2022-11-27T12:58:58.987Z,11.20
2022-11-27T13:01:34.897Z,10.10
2022-11-27T13:04:19.724Z,10.70
2022-11-27T13:07:05.502Z,10.50
2022-11-27T13:09:47.136Z,12.00
2022-11-27T13:12:26.088Z,11.70
2022-11-27T13:15:02.789Z,10.90
2022-11-27T13:17:39.811Z,11.32
2022-11-27T13:20:19.410Z,13.57
2022-11-27T13:22:51.375Z,15.70
2022-11-27T13:27:53.001Z,14.05
2022-11-27T13:30:25.552Z,14.65
2022-11-27T13:32:58.782Z,11.98
2022-11-27T13:35:31.499Z,12.00
2022-11-27T13:38:14.417Z,12.15
2022-11-27T13:40:46.051Z,10.30
2022-11-27T13:43:30.639Z,14.77
2022-11-27T13:46:06.063Z,11.85
2022-11-27T13:48:38.261Z,12.68
2022-11-27T13:51:09.624Z,11.63
2022-11-27T13:53:43.634Z,11.95
2022-11-27T13:56:12.282Z,12.60
2022-11-27T13:58:43.181Z,10.57
2022-11-27T14:04:56.147Z,12.20
2022-11-27T14:07:36.870Z,10.57
2022-11-27T14:10:13.519Z,9.82
2022-11-27T14:12:43.470Z,9.73
2022-11-27T14:15:25.450Z,12.88
2022-11-27T14:18:07.976Z,15.90
2022-11-27T14:20:48.309Z,11.40
2022-11-27T14:23:30.025Z,12.70
2022-11-27T14:26:14.680Z,13.52
2022-11-27T14:28:46.569Z,13.52
2022-11-27T14:31:29.076Z,12.02
2022-11-27T14:34:16.182Z,12.98
2022-11-27T14:36:47.451Z,17.02
2022-11-27T14:39:24.519Z,10.98
2022-11-27T14:42:01.943Z,14.43
2022-11-27T14:44:31.580Z,13.95
2022-11-27T14:47:04.146Z,13.25
2022-11-27T14:49:35.226Z,13.50
2022-11-27T14:52:14.009Z,12.80
2022-11-27T14:54:44.095Z,13.90
2022-11-27T14:57:25.509Z,11.95
2022-11-27T15:00:15.329Z,15.43
2022-11-27T15:02:44.281Z,12.73
2022-11-27T15:05:22.034Z,13.00
2022-11-27T15:07:55.438Z,14.10
2022-11-27T15:10:39.029Z,14.13
2022-11-27T15:13:21.137Z,12.18
2022-11-27T15:16:02.432Z,15.82
2022-11-27T15:18:33.806Z,16.17
2022-11-27T15:21:03.898Z,14.00
2022-11-27T15:23:35.848Z,16.25
2022-11-27T15:28:56.579Z,14.45
2022-11-27T15:31:32.222Z,14.05
2022-11-27T15:34:06.927Z,12.57
2022-11-27T15:36:44.088Z,14.55
2022-11-27T15:39:22.924Z,12.88
2022-11-27T15:41:54.369Z,16.13
2022-11-27T15:44:23.357Z,15.10
2022-11-27T15:46:52.889Z,12.88
2022-11-27T15:49:22.796Z,17.13
2022-11-27T15:51:52.759Z,14.90
2022-11-27T15:54:23.342Z,14.05
2022-11-27T15:56:52.230Z,16.13
2022-11-27T16:02:01.267Z,12.93
2022-11-27T16:04:30.219Z,15.60
2022-11-27T16:06:58.980Z,15.02
2022-11-27T16:09:27.626Z,14.60
2022-11-27T16:11:56.418Z,13.05
2022-11-27T16:14:25.585Z,13.15
2022-11-27T16:16:54.268Z,13.57
2022-11-27T16:19:24.919Z,14.98
2022-11-27T16:21:53.569Z,14.75
2022-11-27T16:24:22.287Z,14.02
2022-11-27T16:26:53.598Z,13.95
2022-11-27T16:29:22.262Z,16.90
2022-11-27T16:31:50.920Z,14.38
2022-11-27T16:34:19.688Z,14.38
2022-11-27T16:36:50.275Z,15.30
2022-11-27T16:39:19.457Z,16.83
2022-11-27T16:41:48.171Z,13.63
2022-11-27T16:44:17.118Z,14.38
2022-11-27T16:46:45.790Z,16.50
2022-11-27T16:49:14.901Z,14.75
2022-11-27T16:51:44.042Z,15.23
2022-11-27T16:54:15.667Z,15.68
2022-11-27T16:56:44.675Z,16.48
2022-11-27T16:59:16.271Z,16.75
2022-11-27T17:01:45.073Z,14.90
2022-11-27T17:04:19.422Z,15.40
2022-11-27T17:06:49.917Z,16.73
2022-11-27T17:09:21.912Z,19.02
2022-11-27T17:14:19.892Z,18.77
2022-11-27T17:16:49.098Z,16.15
2022-11-27T17:19:18.190Z,22.42
2022-11-27T17:21:47.300Z,15.00
2022-11-27T17:24:18.188Z,14.95
2022-11-27T17:26:50.034Z,17.83
2022-11-27T17:29:21.056Z,17.13
2022-11-27T17:31:50.120Z,15.80
2022-11-27T17:34:20.055Z,17.70
2022-11-27T17:36:53.127Z,14.15
2022-11-27T17:39:21.900Z,17.17
2022-11-27T17:41:52.526Z,15.27
2022-11-27T17:44:21.226Z,16.98
2022-11-27T17:46:50.172Z,19.30
2022-11-27T17:49:21.239Z,15.93
2022-11-27T17:51:49.790Z,15.93
2022-11-27T17:54:18.445Z,17.88
2022-11-27T17:56:50.599Z,18.50
2022-11-27T17:59:22.026Z,16.90
2022-11-27T18:01:52.534Z,15.45
2022-11-27T18:04:22.435Z,18.38
2022-11-27T18:06:51.105Z,18.58
2022-11-27T18:09:19.906Z,16.88
2022-11-27T18:11:48.466Z,16.40
2022-11-27T18:14:17.146Z,18.67
2022-11-27T18:16:47.883Z,22.58
2022-11-27T18:19:16.771Z,21.42
2022-11-27T18:21:45.400Z,23.65
2022-11-27T18:24:22.916Z,24.08
2022-11-27T18:27:07.662Z,18.55
2022-11-27T18:29:38.738Z,20.42
2022-11-27T18:32:10.098Z,26.42
2022-11-27T18:34:38.905Z,20.02
2022-11-27T18:37:08.249Z,20.42
2022-11-27T18:39:37.816Z,23.30
2022-11-27T18:42:07.685Z,23.58
2022-11-27T18:44:44.251Z,25.52
2022-11-27T18:47:16.628Z,24.20
2022-11-27T18:49:45.411Z,26.35
2022-11-27T18:52:15.693Z,21.45
2022-11-27T18:54:44.802Z,24.08
2022-11-27T18:57:13.585Z,20.92
2022-11-27T18:59:45.075Z,27.67
2022-11-27T19:02:16.944Z,28.35
2022-11-27T19:04:46.089Z,29.05
2022-11-27T19:07:14.805Z,24.23
2022-11-27T19:09:44.046Z,24.40
2022-11-27T19:12:13.288Z,25.73
2022-11-27T19:14:42.101Z,28.88
2022-11-27T19:17:10.883Z,26.88
2022-11-27T19:19:56.693Z,23.52
2022-11-27T19:22:25.412Z,22.92
2022-11-27T19:24:54.107Z,22.85
2022-11-27T19:27:22.769Z,25.60
2022-11-27T19:29:51.392Z,23.60
2022-11-27T19:32:20.010Z,24.10
2022-11-27T19:34:53.672Z,25.98
2022-11-27T19:37:34.215Z,19.27
2022-11-27T19:40:04.485Z,20.73
2022-11-27T19:42:33.799Z,24.35
2022-11-27T19:45:02.372Z,21.08
2022-11-27T19:47:30.948Z,21.67
2022-11-27T19:50:01.477Z,23.63
2022-11-27T19:52:30.076Z,25.27
2022-11-27T19:54:58.671Z,20.73
2022-11-27T19:57:27.745Z,20.45
2022-11-27T19:59:56.395Z,23.10
2022-11-27T20:02:25.108Z,23.75
2022-11-27T20:04:53.951Z,25.92
2022-11-27T20:07:24.706Z,21.05
2022-11-27T20:09:53.532Z,21.55
2022-11-27T20:12:22.127Z,22.45
2022-11-27T20:14:50.763Z,23.88
2022-11-27T20:17:19.385Z,22.08
2022-11-27T20:19:48.008Z,21.05
2022-11-27T20:22:16.655Z,24.48
2022-11-27T20:25:04.478Z,22.10
2022-11-27T20:27:37.861Z,22.60
2022-11-27T20:30:09.547Z,25.75
2022-11-27T20:32:38.300Z,25.48
2022-11-27T20:35:07.861Z,24.58
2022-11-27T20:37:37.398Z,23.02
2022-11-27T20:40:10.101Z,19.73
2022-11-27T20:42:38.715Z,25.42
2022-11-27T20:45:09.255Z,21.50
2022-11-27T20:47:37.893Z,24.65
2022-11-27T20:50:08.864Z,24.00
2022-11-27T20:52:37.467Z,26.57
2022-11-27T20:55:09.578Z,23.90
2022-11-27T20:57:38.267Z,26.90
2022-11-27T21:00:09.407Z,24.65
2022-11-27T21:02:43.112Z,21.95
2022-11-27T21:05:12.836Z,24.17
2022-11-27T21:07:43.717Z,27.15
2022-11-27T21:10:17.805Z,22.80
2022-11-27T21:12:46.413Z,23.58
2022-11-27T21:15:14.968Z,24.58
2022-11-27T21:17:43.568Z,23.23
2022-11-27T21:20:14.148Z,26.45
2022-11-27T21:22:43.495Z,24.55
2022-11-27T21:25:14.252Z,24.88
2022-11-27T21:27:42.808Z,22.40
2022-11-27T21:30:12.225Z,22.00
2022-11-27T21:32:40.852Z,24.80
2022-11-27T21:35:10.398Z,22.50
2022-11-27T21:37:39.072Z,23.23
2022-11-27T21:40:09.831Z,23.60
2022-11-27T21:42:44.351Z,26.63
2022-11-27T21:45:13.497Z,22.08
2022-11-27T21:47:42.120Z,25.38
2022-11-27T21:50:13.085Z,24.02
2022-11-27T21:52:41.863Z,19.53
2022-11-27T21:55:12.146Z,27.08
2022-11-27T21:57:42.922Z,23.67
2022-11-27T22:00:12.633Z,24.67
2022-11-27T22:02:41.532Z,22.83
2022-11-27T22:05:10.904Z,25.27
2022-11-27T22:07:39.757Z,22.60
2022-11-27T22:10:11.539Z,24.27
2022-11-27T22:12:42.105Z,22.33
2022-11-27T22:15:12.293Z,23.95
2022-11-27T22:17:40.902Z,23.25
2022-11-27T22:20:10.860Z,23.92
2022-11-27T22:22:39.430Z,24.20
2022-11-27T22:25:08.991Z,25.85
2022-11-27T22:27:37.583Z,22.88
2022-11-27T22:30:10.413Z,24.52
2022-11-27T22:32:39.011Z,22.95
2022-11-27T22:35:08.698Z,23.27
2022-11-27T22:37:37.247Z,22.52
2022-11-27T22:40:08.435Z,22.55
2022-11-27T22:42:37.535Z,23.20
2022-11-27T22:45:11.315Z,21.00
2022-11-27T22:47:39.923Z,20.30
2022-11-27T22:50:09.698Z,20.05
2022-11-27T22:52:38.274Z,23.48
2022-11-27T22:55:07.657Z,19.20
2022-11-27T22:57:36.280Z,22.50
2022-11-27T23:00:09.112Z,21.05
2022-11-27T23:02:39.491Z,21.55
2022-11-27T23:05:08.768Z,23.10
2022-11-27T23:07:37.420Z,22.13
2022-11-27T23:10:08.796Z,20.98
2022-11-27T23:12:37.490Z,23.02
2022-11-27T23:15:09.141Z,21.90
2022-11-27T23:17:37.763Z,20.27
2022-11-27T23:20:08.802Z,21.60
2022-11-27T23:22:37.549Z,20.97
2022-11-27T23:25:07.105Z,21.00
2022-11-27T23:27:35.730Z,21.75
2022-11-27T23:30:04.545Z,20.25
2022-11-27T23:32:38.804Z,23.48
2022-11-27T23:35:08.291Z,20.45
2022-11-27T23:37:36.891Z,20.50
2022-11-27T23:40:07.585Z,22.33
2022-11-27T23:42:36.470Z,25.13
2022-11-27T23:45:06.085Z,21.70
2022-11-27T23:47:34.699Z,22.08
2022-11-27T23:50:05.831Z,25.17
2022-11-27T23:52:34.731Z,24.58
2022-11-27T23:55:03.371Z,24.00
2022-11-27T23:57:31.967Z,25.50
